sensor_id;sensor_type;location;lat;lon;timestamp;temperature;humidity
13817;DHT22;6979;52.116;5.286;2023-06-10T00:01:29;25.80;79.80
13817;DHT22;6979;52.116;5.286;2023-06-10T00:03:59;25.70;79.80
13817;DHT22;6979;52.116;5.286;2023-06-10T00:06:26;25.70;80.70
13817;DHT22;6979;52.116;5.286;2023-06-10T00:08:54;25.70;80.00
13817;DHT22;6979;52.116;5.286;2023-06-10T00:11:22;25.60;79.90
13817;DHT22;6979;52.116;5.286;2023-06-10T00:13:49;25.60;79.90
13817;DHT22;6979;52.116;5.286;2023-06-10T00:16:16;25.60;80.00
13817;DHT22;6979;52.116;5.286;2023-06-10T00:18:44;25.50;80.00
13817;DHT22;6979;52.116;5.286;2023-06-10T00:21:12;25.50;79.90
13817;DHT22;6979;52.116;5.286;2023-06-10T00:23:39;25.50;80.00
13817;DHT22;6979;52.116;5.286;2023-06-10T00:26:06;25.40;80.00
13817;DHT22;6979;52.116;5.286;2023-06-10T00:28:35;25.40;80.00
13817;DHT22;6979;52.116;5.286;2023-06-10T00:31:02;25.40;80.10
13817;DHT22;6979;52.116;5.286;2023-06-10T00:33:33;25.30;79.90
13817;DHT22;6979;52.116;5.286;2023-06-10T00:36:01;25.30;80.00
13817;DHT22;6979;52.116;5.286;2023-06-10T00:38:31;25.30;80.00
13817;DHT22;6979;52.116;5.286;2023-06-10T00:40:58;25.20;80.00
13817;DHT22;6979;52.116;5.286;2023-06-10T00:43:25;25.20;80.20
13817;DHT22;6979;52.116;5.286;2023-06-10T00:45:54;25.20;80.20
13817;DHT22;6979;52.116;5.286;2023-06-10T00:48:22;25.20;80.20
13817;DHT22;6979;52.116;5.286;2023-06-10T00:50:49;25.10;80.10
13817;DHT22;6979;52.116;5.286;2023-06-10T00:53:16;25.10;80.10
13817;DHT22;6979;52.116;5.286;2023-06-10T00:55:44;25.00;80.00
13817;DHT22;6979;52.116;5.286;2023-06-10T00:58:11;25.00;80.00
13817;DHT22;6979;52.116;5.286;2023-06-10T01:00:38;25.00;80.00
13817;DHT22;6979;52.116;5.286;2023-06-10T01:03:06;24.90;80.00
13817;DHT22;6979;52.116;5.286;2023-06-10T01:05:34;24.90;80.00
13817;DHT22;6979;52.116;5.286;2023-06-10T01:08:06;24.90;80.00
13817;DHT22;6979;52.116;5.286;2023-06-10T01:10:36;24.80;79.90
13817;DHT22;6979;52.116;5.286;2023-06-10T01:13:07;24.80;79.90
13817;DHT22;6979;52.116;5.286;2023-06-10T01:15:37;24.70;79.80
13817;DHT22;6979;52.116;5.286;2023-06-10T01:18:09;24.70;79.80
13817;DHT22;6979;52.116;5.286;2023-06-10T01:20:42;24.70;79.80
13817;DHT22;6979;52.116;5.286;2023-06-10T01:23:12;24.70;79.80
13817;DHT22;6979;52.116;5.286;2023-06-10T01:25:41;24.60;79.70
13817;DHT22;6979;52.116;5.286;2023-06-10T01:28:13;24.60;79.70
13817;DHT22;6979;52.116;5.286;2023-06-10T01:30:47;24.60;79.80
13817;DHT22;6979;52.116;5.286;2023-06-10T01:33:18;24.50;79.80
13817;DHT22;6979;52.116;5.286;2023-06-10T01:35:50;24.50;79.70
13817;DHT22;6979;52.116;5.286;2023-06-10T01:38:20;24.50;79.80
13817;DHT22;6979;52.116;5.286;2023-06-10T01:40:48;24.50;79.90
13817;DHT22;6979;52.116;5.286;2023-06-10T01:43:16;24.40;79.80
13817;DHT22;6979;52.116;5.286;2023-06-10T01:45:43;24.40;79.80
13817;DHT22;6979;52.116;5.286;2023-06-10T01:48:09;24.40;79.80
13817;DHT22;6979;52.116;5.286;2023-06-10T01:50:36;24.30;79.90
13817;DHT22;6979;52.116;5.286;2023-06-10T01:53:04;24.30;80.00
13817;DHT22;6979;52.116;5.286;2023-06-10T01:55:33;24.30;80.10
13817;DHT22;6979;52.116;5.286;2023-06-10T01:58:00;24.30;80.10
13817;DHT22;6979;52.116;5.286;2023-06-10T02:00:27;24.20;80.20
13817;DHT22;6979;52.116;5.286;2023-06-10T02:02:54;24.20;80.30
13817;DHT22;6979;52.116;5.286;2023-06-10T02:05:22;24.20;81.20
13817;DHT22;6979;52.116;5.286;2023-06-10T02:07:49;24.20;80.40
13817;DHT22;6979;52.116;5.286;2023-06-10T02:10:16;24.10;80.40
13817;DHT22;6979;52.116;5.286;2023-06-10T02:12:44;24.10;80.40
13817;DHT22;6979;52.116;5.286;2023-06-10T02:15:11;24.10;80.70
13817;DHT22;6979;52.116;5.286;2023-06-10T02:17:38;24.00;80.70
13817;DHT22;6979;52.116;5.286;2023-06-10T02:20:06;24.00;80.70
13817;DHT22;6979;52.116;5.286;2023-06-10T02:22:37;24.00;80.90
13817;DHT22;6979;52.116;5.286;2023-06-10T02:25:05;24.00;80.90
13817;DHT22;6979;52.116;5.286;2023-06-10T02:27:32;23.90;80.80
13817;DHT22;6979;52.116;5.286;2023-06-10T02:30:00;23.90;80.90
13817;DHT22;6979;52.116;5.286;2023-06-10T02:32:29;23.90;81.00
13817;DHT22;6979;52.116;5.286;2023-06-10T02:34:56;23.90;81.00
13817;DHT22;6979;52.116;5.286;2023-06-10T02:37:26;23.90;81.20
13817;DHT22;6979;52.116;5.286;2023-06-10T02:39:54;23.80;81.20
13817;DHT22;6979;52.116;5.286;2023-06-10T02:42:21;23.80;81.40
13817;DHT22;6979;52.116;5.286;2023-06-10T02:44:49;23.80;81.50
13817;DHT22;6979;52.116;5.286;2023-06-10T02:47:26;23.80;81.50
13817;DHT22;6979;52.116;5.286;2023-06-10T02:49:53;23.80;81.70
13817;DHT22;6979;52.116;5.286;2023-06-10T02:52:21;23.70;81.80
13817;DHT22;6979;52.116;5.286;2023-06-10T02:54:48;23.70;81.90
13817;DHT22;6979;52.116;5.286;2023-06-10T02:57:15;23.70;82.10
13817;DHT22;6979;52.116;5.286;2023-06-10T02:59:42;23.70;82.30
13817;DHT22;6979;52.116;5.286;2023-06-10T03:02:12;23.60;82.50
13817;DHT22;6979;52.116;5.286;2023-06-10T03:04:46;23.60;82.60
13817;DHT22;6979;52.116;5.286;2023-06-10T03:07:16;23.60;82.80
13817;DHT22;6979;52.116;5.286;2023-06-10T03:09:44;23.50;82.90
13817;DHT22;6979;52.116;5.286;2023-06-10T03:12:12;23.50;83.10
13817;DHT22;6979;52.116;5.286;2023-06-10T03:14:44;23.50;83.20
13817;DHT22;6979;52.116;5.286;2023-06-10T03:17:11;23.40;83.30
13817;DHT22;6979;52.116;5.286;2023-06-10T03:19:40;23.40;83.50
13817;DHT22;6979;52.116;5.286;2023-06-10T03:22:10;23.40;83.60
13817;DHT22;6979;52.116;5.286;2023-06-10T03:24:41;23.30;84.00
13817;DHT22;6979;52.116;5.286;2023-06-10T03:27:10;23.30;83.90
13817;DHT22;6979;52.116;5.286;2023-06-10T03:29:39;23.30;84.20
13817;DHT22;6979;52.116;5.286;2023-06-10T03:32:07;23.30;84.30
13817;DHT22;6979;52.116;5.286;2023-06-10T03:34:36;23.20;84.30
13817;DHT22;6979;52.116;5.286;2023-06-10T03:37:04;23.20;84.40
13817;DHT22;6979;52.116;5.286;2023-06-10T03:39:33;23.20;84.80
13817;DHT22;6979;52.116;5.286;2023-06-10T03:42:01;23.20;84.90
13817;DHT22;6979;52.116;5.286;2023-06-10T03:44:29;23.10;85.00
13817;DHT22;6979;52.116;5.286;2023-06-10T03:46:59;23.10;85.00
13817;DHT22;6979;52.116;5.286;2023-06-10T03:49:26;23.10;85.10
13817;DHT22;6979;52.116;5.286;2023-06-10T03:51:56;23.10;85.30
13817;DHT22;6979;52.116;5.286;2023-06-10T03:54:25;23.10;85.30
13817;DHT22;6979;52.116;5.286;2023-06-10T03:56:53;23.10;85.40
13817;DHT22;6979;52.116;5.286;2023-06-10T03:59:20;23.10;85.70
13817;DHT22;6979;52.116;5.286;2023-06-10T04:01:47;23.10;85.70
13817;DHT22;6979;52.116;5.286;2023-06-10T04:04:14;23.00;85.80
13817;DHT22;6979;52.116;5.286;2023-06-10T04:06:42;23.00;86.00
13817;DHT22;6979;52.116;5.286;2023-06-10T04:09:10;23.00;86.00
13817;DHT22;6979;52.116;5.286;2023-06-10T04:11:39;23.00;86.20
13817;DHT22;6979;52.116;5.286;2023-06-10T04:14:07;23.00;86.30
13817;DHT22;6979;52.116;5.286;2023-06-10T04:16:35;23.00;86.50
13817;DHT22;6979;52.116;5.286;2023-06-10T04:19:02;23.00;86.50
13817;DHT22;6979;52.116;5.286;2023-06-10T04:21:29;23.00;86.50
13817;DHT22;6979;52.116;5.286;2023-06-10T04:23:56;23.00;86.60
13817;DHT22;6979;52.116;5.286;2023-06-10T04:26:24;23.00;87.60
13817;DHT22;6979;52.116;5.286;2023-06-10T04:28:51;23.00;86.80
13817;DHT22;6979;52.116;5.286;2023-06-10T04:31:20;23.00;86.90
13817;DHT22;6979;52.116;5.286;2023-06-10T04:33:50;23.00;87.00
13817;DHT22;6979;52.116;5.286;2023-06-10T04:36:17;23.00;87.10
13817;DHT22;6979;52.116;5.286;2023-06-10T04:38:44;23.10;87.20
13817;DHT22;6979;52.116;5.286;2023-06-10T04:41:11;23.00;87.30
13817;DHT22;6979;52.116;5.286;2023-06-10T04:43:39;23.00;87.30
13817;DHT22;6979;52.116;5.286;2023-06-10T04:46:05;23.10;87.50
13817;DHT22;6979;52.116;5.286;2023-06-10T04:48:34;23.10;87.50
13817;DHT22;6979;52.116;5.286;2023-06-10T04:51:02;23.10;87.80
13817;DHT22;6979;52.116;5.286;2023-06-10T04:53:31;23.10;87.60
13817;DHT22;6979;52.116;5.286;2023-06-10T04:55:59;23.10;87.60
13817;DHT22;6979;52.116;5.286;2023-06-10T04:58:26;23.10;87.80
13817;DHT22;6979;52.116;5.286;2023-06-10T05:00:53;23.20;87.90
13817;DHT22;6979;52.116;5.286;2023-06-10T05:03:23;23.20;87.90
13817;DHT22;6979;52.116;5.286;2023-06-10T05:05:51;23.20;88.90
13817;DHT22;6979;52.116;5.286;2023-06-10T05:08:18;23.20;88.20
13817;DHT22;6979;52.116;5.286;2023-06-10T05:10:45;23.20;88.20
13817;DHT22;6979;52.116;5.286;2023-06-10T05:13:11;23.20;88.30
13817;DHT22;6979;52.116;5.286;2023-06-10T05:15:38;23.20;88.40
13817;DHT22;6979;52.116;5.286;2023-06-10T05:18:05;23.20;88.40
13817;DHT22;6979;52.116;5.286;2023-06-10T05:20:32;23.30;88.50
13817;DHT22;6979;52.116;5.286;2023-06-10T05:23:00;23.30;88.50
13817;DHT22;6979;52.116;5.286;2023-06-10T05:25:30;23.30;88.70
13817;DHT22;6979;52.116;5.286;2023-06-10T05:27:58;23.40;88.80
13817;DHT22;6979;52.116;5.286;2023-06-10T05:30:25;23.40;88.70
13817;DHT22;6979;52.116;5.286;2023-06-10T05:32:52;23.40;88.80
13817;DHT22;6979;52.116;5.286;2023-06-10T05:35:19;23.40;88.90
13817;DHT22;6979;52.116;5.286;2023-06-10T05:37:46;23.50;88.90
13817;DHT22;6979;52.116;5.286;2023-06-10T05:40:14;23.50;88.90
13817;DHT22;6979;52.116;5.286;2023-06-10T05:42:41;23.50;88.90
13817;DHT22;6979;52.116;5.286;2023-06-10T05:45:09;23.60;88.90
13817;DHT22;6979;52.116;5.286;2023-06-10T05:47:36;23.60;89.00
13817;DHT22;6979;52.116;5.286;2023-06-10T05:50:03;23.60;89.00
13817;DHT22;6979;52.116;5.286;2023-06-10T05:52:32;23.60;89.00
13817;DHT22;6979;52.116;5.286;2023-06-10T05:54:59;23.70;89.10
13817;DHT22;6979;52.116;5.286;2023-06-10T05:57:27;23.70;89.10
13817;DHT22;6979;52.116;5.286;2023-06-10T05:59:54;23.70;89.10
13817;DHT22;6979;52.116;5.286;2023-06-10T06:02:21;23.80;89.10
13817;DHT22;6979;52.116;5.286;2023-06-10T06:04:48;23.80;89.10
13817;DHT22;6979;52.116;5.286;2023-06-10T06:07:15;23.90;89.20
13817;DHT22;6979;52.116;5.286;2023-06-10T06:09:42;23.90;89.10
13817;DHT22;6979;52.116;5.286;2023-06-10T06:12:09;23.90;89.00
13817;DHT22;6979;52.116;5.286;2023-06-10T06:14:38;24.00;89.10
13817;DHT22;6979;52.116;5.286;2023-06-10T06:17:05;24.00;90.00
13817;DHT22;6979;52.116;5.286;2023-06-10T06:19:32;24.10;89.00
13817;DHT22;6979;52.116;5.286;2023-06-10T06:21:59;24.10;89.00
13817;DHT22;6979;52.116;5.286;2023-06-10T06:24:26;24.20;89.10
13817;DHT22;6979;52.116;5.286;2023-06-10T06:26:53;24.30;89.20
13817;DHT22;6979;52.116;5.286;2023-06-10T06:29:20;24.30;89.10
13817;DHT22;6979;52.116;5.286;2023-06-10T06:31:48;24.40;89.00
13817;DHT22;6979;52.116;5.286;2023-06-10T06:34:15;24.40;89.10
13817;DHT22;6979;52.116;5.286;2023-06-10T06:36:44;24.50;89.00
13817;DHT22;6979;52.116;5.286;2023-06-10T06:39:11;24.60;89.00
13817;DHT22;6979;52.116;5.286;2023-06-10T06:41:38;24.60;89.70
13817;DHT22;6979;52.116;5.286;2023-06-10T06:44:05;24.70;88.70
13817;DHT22;6979;52.116;5.286;2023-06-10T06:46:38;24.70;88.50
13817;DHT22;6979;52.116;5.286;2023-06-10T06:49:06;24.80;88.50
13817;DHT22;6979;52.116;5.286;2023-06-10T06:51:34;24.90;88.40
13817;DHT22;6979;52.116;5.286;2023-06-10T06:54:01;25.00;88.20
13817;DHT22;6979;52.116;5.286;2023-06-10T06:56:27;25.00;88.00
13817;DHT22;6979;52.116;5.286;2023-06-10T06:58:54;25.10;87.70
13817;DHT22;6979;52.116;5.286;2023-06-10T07:01:21;25.20;87.60
13817;DHT22;6979;52.116;5.286;2023-06-10T07:03:51;25.20;87.50
13817;DHT22;6979;52.116;5.286;2023-06-10T07:06:23;25.30;87.50
13817;DHT22;6979;52.116;5.286;2023-06-10T07:08:50;25.40;87.50
13817;DHT22;6979;52.116;5.286;2023-06-10T07:11:19;25.40;87.30
13817;DHT22;6979;52.116;5.286;2023-06-10T07:13:47;25.50;87.10
13817;DHT22;6979;52.116;5.286;2023-06-10T07:16:16;25.60;87.10
13817;DHT22;6979;52.116;5.286;2023-06-10T07:18:46;25.70;87.10
13817;DHT22;6979;52.116;5.286;2023-06-10T07:21:13;25.70;87.00
13817;DHT22;6979;52.116;5.286;2023-06-10T07:23:43;25.90;86.90
13817;DHT22;6979;52.116;5.286;2023-06-10T07:26:10;25.90;86.70
13817;DHT22;6979;52.116;5.286;2023-06-10T07:28:39;26.00;86.80
13817;DHT22;6979;52.116;5.286;2023-06-10T07:31:07;26.20;86.60
13817;DHT22;6979;52.116;5.286;2023-06-10T07:33:37;26.20;86.30
13817;DHT22;6979;52.116;5.286;2023-06-10T07:36:05;26.30;86.20
13817;DHT22;6979;52.116;5.286;2023-06-10T07:38:35;26.40;85.90
13817;DHT22;6979;52.116;5.286;2023-06-10T07:41:03;26.50;85.50
13817;DHT22;6979;52.116;5.286;2023-06-10T07:43:30;26.60;85.40
13817;DHT22;6979;52.116;5.286;2023-06-10T07:45:57;26.70;85.20
13817;DHT22;6979;52.116;5.286;2023-06-10T07:48:25;26.80;84.90
13817;DHT22;6979;52.116;5.286;2023-06-10T07:50:52;26.90;84.80
13817;DHT22;6979;52.116;5.286;2023-06-10T07:53:18;26.90;85.30
13817;DHT22;6979;52.116;5.286;2023-06-10T07:55:47;27.00;84.40
13817;DHT22;6979;52.116;5.286;2023-06-10T07:58:16;27.10;84.20
13817;DHT22;6979;52.116;5.286;2023-06-10T08:00:42;27.20;83.90
13817;DHT22;6979;52.116;5.286;2023-06-10T08:03:09;27.30;83.90
13817;DHT22;6979;52.116;5.286;2023-06-10T08:05:36;27.30;83.70
13817;DHT22;6979;52.116;5.286;2023-06-10T08:08:03;27.40;83.70
13817;DHT22;6979;52.116;5.286;2023-06-10T08:10:30;27.60;83.60
13817;DHT22;6979;52.116;5.286;2023-06-10T08:12:57;27.60;83.50
13817;DHT22;6979;52.116;5.286;2023-06-10T08:15:25;27.70;83.40
13817;DHT22;6979;52.116;5.286;2023-06-10T08:17:55;27.80;83.30
13817;DHT22;6979;52.116;5.286;2023-06-10T08:20:22;27.90;83.30
13817;DHT22;6979;52.116;5.286;2023-06-10T08:22:49;28.00;82.90
13817;DHT22;6979;52.116;5.286;2023-06-10T08:25:16;28.10;82.80
13817;DHT22;6979;52.116;5.286;2023-06-10T08:27:43;28.20;82.20
13817;DHT22;6979;52.116;5.286;2023-06-10T08:30:11;28.30;82.00
13817;DHT22;6979;52.116;5.286;2023-06-10T08:32:40;28.40;81.90
13817;DHT22;6979;52.116;5.286;2023-06-10T08:35:07;28.50;81.70
13817;DHT22;6979;52.116;5.286;2023-06-10T08:37:34;28.60;81.80
13817;DHT22;6979;52.116;5.286;2023-06-10T08:40:01;28.70;81.50
13817;DHT22;6979;52.116;5.286;2023-06-10T08:42:33;28.70;81.00
13817;DHT22;6979;52.116;5.286;2023-06-10T08:45:02;28.80;80.80
13817;DHT22;6979;52.116;5.286;2023-06-10T08:47:34;28.90;80.60
13817;DHT22;6979;52.116;5.286;2023-06-10T08:50:05;29.00;80.90
13817;DHT22;6979;52.116;5.286;2023-06-10T08:52:40;29.20;81.20
13817;DHT22;6979;52.116;5.286;2023-06-10T08:55:12;29.40;81.10
13817;DHT22;6979;52.116;5.286;2023-06-10T08:57:41;29.80;81.30
13817;DHT22;6979;52.116;5.286;2023-06-10T09:00:09;30.30;80.80
13817;DHT22;6979;52.116;5.286;2023-06-10T09:02:36;30.80;80.30
13817;DHT22;6979;52.116;5.286;2023-06-10T09:05:07;31.50;79.40
13817;DHT22;6979;52.116;5.286;2023-06-10T09:07:35;32.10;77.50
13817;DHT22;6979;52.116;5.286;2023-06-10T09:10:03;32.70;77.10
13817;DHT22;6979;52.116;5.286;2023-06-10T09:12:32;33.30;76.10
13817;DHT22;6979;52.116;5.286;2023-06-10T09:15:00;33.80;75.50
13817;DHT22;6979;52.116;5.286;2023-06-10T09:17:27;34.30;74.60
13817;DHT22;6979;52.116;5.286;2023-06-10T09:19:54;34.80;73.20
13817;DHT22;6979;52.116;5.286;2023-06-10T09:22:25;35.20;72.20
13817;DHT22;6979;52.116;5.286;2023-06-10T09:25:01;35.50;71.50
13817;DHT22;6979;52.116;5.286;2023-06-10T09:27:30;35.70;70.90
13817;DHT22;6979;52.116;5.286;2023-06-10T09:29:58;35.90;69.80
13817;DHT22;6979;52.116;5.286;2023-06-10T09:32:25;36.00;69.70
13817;DHT22;6979;52.116;5.286;2023-06-10T09:34:52;36.00;69.10
13817;DHT22;6979;52.116;5.286;2023-06-10T09:37:22;36.10;69.00
13817;DHT22;6979;52.116;5.286;2023-06-10T09:40:04;36.10;68.00
13817;DHT22;6979;52.116;5.286;2023-06-10T09:42:35;36.30;67.70
13817;DHT22;6979;52.116;5.286;2023-06-10T09:45:05;36.50;67.60
13817;DHT22;6979;52.116;5.286;2023-06-10T09:47:33;36.80;66.60
13817;DHT22;6979;52.116;5.286;2023-06-10T09:50:00;37.10;66.30
13817;DHT22;6979;52.116;5.286;2023-06-10T09:52:36;37.50;66.00
13817;DHT22;6979;52.116;5.286;2023-06-10T09:55:11;37.90;65.30
13817;DHT22;6979;52.116;5.286;2023-06-10T09:57:40;38.20;64.00
13817;DHT22;6979;52.116;5.286;2023-06-10T10:00:16;38.60;64.30
13817;DHT22;6979;52.116;5.286;2023-06-10T10:02:45;38.90;62.90
13817;DHT22;6979;52.116;5.286;2023-06-10T10:05:13;39.20;62.80
13817;DHT22;6979;52.116;5.286;2023-06-10T10:07:40;39.40;62.60
13817;DHT22;6979;52.116;5.286;2023-06-10T10:10:12;39.80;61.70
13817;DHT22;6979;52.116;5.286;2023-06-10T10:12:40;40.00;61.10
13817;DHT22;6979;52.116;5.286;2023-06-10T10:15:08;40.30;61.20
13817;DHT22;6979;52.116;5.286;2023-06-10T10:17:39;40.50;60.90
13817;DHT22;6979;52.116;5.286;2023-06-10T10:20:08;40.80;60.20
13817;DHT22;6979;52.116;5.286;2023-06-10T10:22:40;41.10;59.80
13817;DHT22;6979;52.116;5.286;2023-06-10T10:25:11;41.30;58.60
13817;DHT22;6979;52.116;5.286;2023-06-10T10:27:44;41.40;58.40
13817;DHT22;6979;52.116;5.286;2023-06-10T10:30:12;41.50;58.00
13817;DHT22;6979;52.116;5.286;2023-06-10T10:32:50;41.70;57.90
13817;DHT22;6979;52.116;5.286;2023-06-10T10:35:22;41.80;57.10
13817;DHT22;6979;52.116;5.286;2023-06-10T10:37:51;41.90;56.70
13817;DHT22;6979;52.116;5.286;2023-06-10T10:40:20;42.00;56.50
13817;DHT22;6979;52.116;5.286;2023-06-10T10:42:48;42.10;56.30
13817;DHT22;6979;52.116;5.286;2023-06-10T10:45:15;42.20;56.40
13817;DHT22;6979;52.116;5.286;2023-06-10T10:47:44;42.30;56.30
13817;DHT22;6979;52.116;5.286;2023-06-10T10:50:16;42.40;56.00
13817;DHT22;6979;52.116;5.286;2023-06-10T10:52:51;42.40;55.20
13817;DHT22;6979;52.116;5.286;2023-06-10T10:55:20;42.40;55.00
13817;DHT22;6979;52.116;5.286;2023-06-10T10:57:54;42.40;55.00
13817;DHT22;6979;52.116;5.286;2023-06-10T11:00:28;42.50;54.50
13817;DHT22;6979;52.116;5.286;2023-06-10T11:03:04;42.40;54.30
13817;DHT22;6979;52.116;5.286;2023-06-10T11:05:36;42.40;54.40
13817;DHT22;6979;52.116;5.286;2023-06-10T11:08:08;42.30;54.70
13817;DHT22;6979;52.116;5.286;2023-06-10T11:10:38;42.30;54.70
13817;DHT22;6979;52.116;5.286;2023-06-10T11:13:09;42.20;54.50
13817;DHT22;6979;52.116;5.286;2023-06-10T11:15:43;42.20;54.30
13817;DHT22;6979;52.116;5.286;2023-06-10T11:18:15;42.10;54.50
13817;DHT22;6979;52.116;5.286;2023-06-10T11:20:58;42.10;54.40
13817;DHT22;6979;52.116;5.286;2023-06-10T11:26:21;42.00;54.70
13817;DHT22;6979;52.116;5.286;2023-06-10T11:29:08;42.00;54.50
13817;DHT22;6979;52.116;5.286;2023-06-10T11:34:22;41.90;54.60
13817;DHT22;6979;52.116;5.286;2023-06-10T11:36:51;41.90;54.80
13817;DHT22;6979;52.116;5.286;2023-06-10T11:39:20;41.80;55.00
13817;DHT22;6979;52.116;5.286;2023-06-10T11:41:51;41.80;54.80
13817;DHT22;6979;52.116;5.286;2023-06-10T11:44:18;41.80;55.00
13817;DHT22;6979;52.116;5.286;2023-06-10T11:46:46;41.80;54.80
13817;DHT22;6979;52.116;5.286;2023-06-10T11:49:15;41.80;54.70
13817;DHT22;6979;52.116;5.286;2023-06-10T11:51:42;41.80;54.80
13817;DHT22;6979;52.116;5.286;2023-06-10T11:54:15;41.70;54.60
13817;DHT22;6979;52.116;5.286;2023-06-10T11:56:43;41.70;54.30
13817;DHT22;6979;52.116;5.286;2023-06-10T11:59:12;41.70;54.60
13817;DHT22;6979;52.116;5.286;2023-06-10T12:01:42;41.70;54.30
13817;DHT22;6979;52.116;5.286;2023-06-10T12:04:13;41.60;54.20
13817;DHT22;6979;52.116;5.286;2023-06-10T12:06:41;41.60;54.30
13817;DHT22;6979;52.116;5.286;2023-06-10T12:09:14;41.60;54.20
13817;DHT22;6979;52.116;5.286;2023-06-10T12:11:51;41.50;54.10
13817;DHT22;6979;52.116;5.286;2023-06-10T12:14:53;41.50;54.30
13817;DHT22;6979;52.116;5.286;2023-06-10T12:17:22;41.40;54.60
13817;DHT22;6979;52.116;5.286;2023-06-10T12:19:51;41.40;54.40
13817;DHT22;6979;52.116;5.286;2023-06-10T12:22:20;41.40;54.60
13817;DHT22;6979;52.116;5.286;2023-06-10T12:24:58;41.50;54.80
13817;DHT22;6979;52.116;5.286;2023-06-10T12:27:26;41.50;54.20
13817;DHT22;6979;52.116;5.286;2023-06-10T12:29:57;41.60;54.30
13817;DHT22;6979;52.116;5.286;2023-06-10T12:32:35;41.70;54.10
13817;DHT22;6979;52.116;5.286;2023-06-10T12:35:03;41.80;53.80
13817;DHT22;6979;52.116;5.286;2023-06-10T12:37:35;41.80;53.40
13817;DHT22;6979;52.116;5.286;2023-06-10T12:40:04;41.70;53.50
13817;DHT22;6979;52.116;5.286;2023-06-10T12:42:31;41.70;53.60
13817;DHT22;6979;52.116;5.286;2023-06-10T12:45:01;41.70;53.70
13817;DHT22;6979;52.116;5.286;2023-06-10T12:47:32;41.70;53.60
13817;DHT22;6979;52.116;5.286;2023-06-10T12:50:02;41.70;53.80
13817;DHT22;6979;52.116;5.286;2023-06-10T12:52:30;41.70;53.40
13817;DHT22;6979;52.116;5.286;2023-06-10T12:54:58;41.80;53.40
13817;DHT22;6979;52.116;5.286;2023-06-10T12:57:26;41.90;53.40
13817;DHT22;6979;52.116;5.286;2023-06-10T12:59:55;42.00;53.30
13817;DHT22;6979;52.116;5.286;2023-06-10T13:02:30;42.20;53.10
13817;DHT22;6979;52.116;5.286;2023-06-10T13:04:57;42.20;52.90
13817;DHT22;6979;52.116;5.286;2023-06-10T13:07:24;42.30;52.80
13817;DHT22;6979;52.116;5.286;2023-06-10T13:09:52;42.40;52.70
13817;DHT22;6979;52.116;5.286;2023-06-10T13:12:22;42.40;52.70
13817;DHT22;6979;52.116;5.286;2023-06-10T13:14:48;42.50;52.40
13817;DHT22;6979;52.116;5.286;2023-06-10T13:17:15;42.60;52.20
13817;DHT22;6979;52.116;5.286;2023-06-10T13:19:43;42.70;51.90
13817;DHT22;6979;52.116;5.286;2023-06-10T13:22:10;42.70;52.40
13817;DHT22;6979;52.116;5.286;2023-06-10T13:24:39;42.70;52.30
13817;DHT22;6979;52.116;5.286;2023-06-10T13:27:06;42.80;52.20
13817;DHT22;6979;52.116;5.286;2023-06-10T13:29:33;42.80;52.00
13817;DHT22;6979;52.116;5.286;2023-06-10T13:32:01;42.90;51.80
13817;DHT22;6979;52.116;5.286;2023-06-10T13:34:28;43.00;52.10
13817;DHT22;6979;52.116;5.286;2023-06-10T13:36:57;43.00;51.90
13817;DHT22;6979;52.116;5.286;2023-06-10T13:39:24;43.00;51.70
13817;DHT22;6979;52.116;5.286;2023-06-10T13:41:51;43.10;51.80
13817;DHT22;6979;52.116;5.286;2023-06-10T13:44:18;43.20;51.40
13817;DHT22;6979;52.116;5.286;2023-06-10T13:46:45;43.30;51.10
13817;DHT22;6979;52.116;5.286;2023-06-10T13:49:12;43.30;50.80
13817;DHT22;6979;52.116;5.286;2023-06-10T13:51:39;43.20;50.70
13817;DHT22;6979;52.116;5.286;2023-06-10T13:54:07;43.20;50.80
13817;DHT22;6979;52.116;5.286;2023-06-10T13:56:34;43.10;50.80
13817;DHT22;6979;52.116;5.286;2023-06-10T13:59:05;43.10;50.90
13817;DHT22;6979;52.116;5.286;2023-06-10T14:01:34;43.10;50.90
13817;DHT22;6979;52.116;5.286;2023-06-10T14:04:01;43.10;51.10
13817;DHT22;6979;52.116;5.286;2023-06-10T14:06:32;43.10;51.00
13817;DHT22;6979;52.116;5.286;2023-06-10T14:08:59;43.20;50.90
13817;DHT22;6979;52.116;5.286;2023-06-10T14:11:28;43.20;51.00
13817;DHT22;6979;52.116;5.286;2023-06-10T14:13:55;43.20;50.60
13817;DHT22;6979;52.116;5.286;2023-06-10T14:16:26;43.30;50.60
13817;DHT22;6979;52.116;5.286;2023-06-10T14:18:55;43.20;50.70
13817;DHT22;6979;52.116;5.286;2023-06-10T14:21:22;43.10;50.80
13817;DHT22;6979;52.116;5.286;2023-06-10T14:23:51;43.10;50.70
13817;DHT22;6979;52.116;5.286;2023-06-10T14:26:18;43.10;50.50
13817;DHT22;6979;52.116;5.286;2023-06-10T14:28:49;43.10;50.70
13817;DHT22;6979;52.116;5.286;2023-06-10T14:31:16;43.10;50.00
13817;DHT22;6979;52.116;5.286;2023-06-10T14:33:43;43.10;50.50
13817;DHT22;6979;52.116;5.286;2023-06-10T14:36:13;43.00;50.40
13817;DHT22;6979;52.116;5.286;2023-06-10T14:38:40;43.00;50.60
13817;DHT22;6979;52.116;5.286;2023-06-10T14:41:07;42.90;50.70
13817;DHT22;6979;52.116;5.286;2023-06-10T14:43:34;42.90;51.00
13817;DHT22;6979;52.116;5.286;2023-06-10T14:46:02;42.80;50.50
13817;DHT22;6979;52.116;5.286;2023-06-10T14:48:29;42.80;50.50
13817;DHT22;6979;52.116;5.286;2023-06-10T14:50:56;42.80;50.40
13817;DHT22;6979;52.116;5.286;2023-06-10T14:53:23;42.70;50.50
13817;DHT22;6979;52.116;5.286;2023-06-10T14:55:52;42.60;50.70
13817;DHT22;6979;52.116;5.286;2023-06-10T14:58:19;42.60;50.70
13817;DHT22;6979;52.116;5.286;2023-06-10T15:00:45;42.60;50.60
13817;DHT22;6979;52.116;5.286;2023-06-10T15:03:14;42.50;51.00
13817;DHT22;6979;52.116;5.286;2023-06-10T15:05:41;42.40;50.70
13817;DHT22;6979;52.116;5.286;2023-06-10T15:08:07;42.40;51.00
13817;DHT22;6979;52.116;5.286;2023-06-10T15:10:34;42.30;50.60
13817;DHT22;6979;52.116;5.286;2023-06-10T15:13:01;42.30;50.80
13817;DHT22;6979;52.116;5.286;2023-06-10T15:15:28;42.30;50.80
13817;DHT22;6979;52.116;5.286;2023-06-10T15:17:55;42.30;50.90
13817;DHT22;6979;52.116;5.286;2023-06-10T15:20:23;42.30;51.00
13817;DHT22;6979;52.116;5.286;2023-06-10T15:22:50;42.30;50.90
13817;DHT22;6979;52.116;5.286;2023-06-10T15:25:19;42.30;51.10
13817;DHT22;6979;52.116;5.286;2023-06-10T15:27:46;42.30;50.90
13817;DHT22;6979;52.116;5.286;2023-06-10T15:30:13;42.20;51.10
13817;DHT22;6979;52.116;5.286;2023-06-10T15:32:46;42.20;51.00
13817;DHT22;6979;52.116;5.286;2023-06-10T15:35:13;42.30;51.00
13817;DHT22;6979;52.116;5.286;2023-06-10T15:37:41;42.20;50.60
13817;DHT22;6979;52.116;5.286;2023-06-10T15:40:09;42.20;50.80
13817;DHT22;6979;52.116;5.286;2023-06-10T15:42:36;42.20;51.00
13817;DHT22;6979;52.116;5.286;2023-06-10T15:45:04;42.20;51.10
13817;DHT22;6979;52.116;5.286;2023-06-10T15:47:33;42.10;50.90
13817;DHT22;6979;52.116;5.286;2023-06-10T15:50:00;42.10;50.80
13817;DHT22;6979;52.116;5.286;2023-06-10T15:52:27;42.10;50.60
13817;DHT22;6979;52.116;5.286;2023-06-10T15:54:55;42.10;50.80
13817;DHT22;6979;52.116;5.286;2023-06-10T15:57:22;42.00;50.70
13817;DHT22;6979;52.116;5.286;2023-06-10T15:59:49;42.00;50.80